Time;durP1;ratioP1;P1;durP2;ratioP2;P2;SDS_P1;SDS_P2;PMS_P1;PMS_P2;Temp;Humidity;BMP_temperature;BMP_pressure;BME280_temperature;BME280_humidity;BME280_pressure;Samples;Min_cycle;Max_cycle;Signal;HPM_P1;HPM_P2
2021/06/17 00:00:10;;;;;;;10.00;2.00;;;;;;;25.59;31.12;100960.22;5075185;28;20028;-71
2021/06/17 00:02:36;;;;;;;3.65;1.60;;;;;;;25.60;31.36;100963.81;5074881;28;20031;-71
2021/06/17 00:05:04;;;;;;;2.63;1.50;;;;;;;25.50;31.13;100965.50;5074954;28;20024;-71
2021/06/17 00:07:30;;;;;;;4.80;1.40;;;;;;;25.45;31.13;100963.13;5074815;28;20024;-71
2021/06/17 00:09:55;;;;;;;5.80;1.40;;;;;;;25.39;31.30;100965.56;5074824;28;20746;-71
2021/06/17 00:12:21;;;;;;;2.72;1.38;;;;;;;25.36;31.19;100971.16;5074706;28;20099;-71
2021/06/17 00:14:47;;;;;;;5.63;1.38;;;;;;;25.31;31.14;100958.41;5074729;28;20386;-71
2021/06/17 00:17:12;;;;;;;4.45;1.45;;;;;;;25.26;31.48;100969.25;5074684;28;20021;-71
2021/06/17 00:19:38;;;;;;;3.92;1.50;;;;;;;25.23;31.24;100970.84;5074625;28;20036;-71
2021/06/17 00:22:04;;;;;;;6.95;1.40;;;;;;;25.20;31.43;100965.28;5074577;28;20502;-71
2021/06/17 00:24:30;;;;;;;7.20;1.35;;;;;;;25.19;31.28;100967.28;5074501;28;20044;-74
2021/06/17 00:26:55;;;;;;;2.20;1.35;;;;;;;25.08;31.35;100970.09;5056572;28;20108;-71
2021/06/17 00:29:22;;;;;;;5.50;1.45;;;;;;;25.08;31.66;100972.09;5074724;28;20434;-72
2021/06/17 00:31:48;;;;;;;5.18;1.63;;;;;;;25.08;31.35;100974.91;5074476;28;20024;-72
2021/06/17 00:34:13;;;;;;;5.60;1.45;;;;;;;25.06;31.67;100975.31;5074204;28;20552;-72
2021/06/17 00:36:39;;;;;;;2.97;1.23;;;;;;;25.00;31.39;100973.31;5074301;28;20071;-71
2021/06/17 00:39:07;;;;;;;4.93;1.52;;;;;;;25.00;31.27;100967.72;5074227;28;20020;-71
2021/06/17 00:41:34;;;;;;;3.45;1.50;;;;;;;24.97;31.70;100968.53;5074231;28;20474;-72
2021/06/17 00:44:00;;;;;;;4.40;1.38;;;;;;;24.91;31.42;100970.97;5056196;28;20386;-72
2021/06/17 00:46:26;;;;;;;4.05;1.73;;;;;;;24.86;31.62;100976.97;5074367;28;20017;-71
2021/06/17 00:48:52;;;;;;;3.65;1.50;;;;;;;24.83;31.84;100973.00;5074048;28;20418;-71
2021/06/17 00:51:17;;;;;;;5.47;1.40;;;;;;;24.84;31.43;100971.00;5074269;28;20028;-71
2021/06/17 00:53:43;;;;;;;4.88;1.98;;;;;;;24.71;31.79;100973.44;5073652;28;20040;-71
2021/06/17 00:56:09;;;;;;;3.15;1.40;;;;;;;24.76;31.74;100963.84;5073894;28;20077;-72
2021/06/17 00:58:35;;;;;;;3.95;1.58;;;;;;;24.76;31.83;100967.41;5073878;28;20029;-71
2021/06/17 01:01:01;;;;;;;7.05;2.25;;;;;;;24.70;31.86;100965.44;5073757;28;20031;-71
2021/06/17 01:03:26;;;;;;;5.68;1.80;;;;;;;24.65;32.01;100955.50;5073684;28;20020;-71
2021/06/17 01:05:52;;;;;;;3.63;1.33;;;;;;;24.62;31.75;100962.66;5073552;28;20036;-71
2021/06/17 01:08:38;;;;;;;3.95;1.85;;;;;;;24.56;31.88;100969.06;5073477;28;20029;-71
2021/06/17 01:11:22;;;;;;;4.80;1.60;;;;;;;24.52;31.71;100973.88;5073637;28;20021;-71
2021/06/17 01:13:50;;;;;;;5.30;1.55;;;;;;;24.49;32.25;100969.13;5073536;28;20056;-74
2021/06/17 01:16:29;;;;;;;8.73;1.65;;;;;;;24.39;32.27;100972.72;5073497;28;20024;-71
2021/06/17 01:19:00;;;;;;;3.20;1.35;;;;;;;24.30;32.51;100965.50;5055476;28;20437;-71
2021/06/17 01:21:56;;;;;;;3.60;1.50;;;;;;;24.21;32.80;100965.13;5073365;28;20479;-72
2021/06/17 01:24:39;;;;;;;6.97;1.58;;;;;;;24.16;32.86;100967.53;5073285;28;20029;-71
2021/06/17 01:27:32;;;;;;;4.97;1.42;;;;;;;23.96;32.96;100964.38;5073587;28;20028;-71
2021/06/17 01:30:11;;;;;;;6.25;1.90;;;;;;;23.99;32.90;100967.13;5073248;28;20029;-72
2021/06/17 01:32:43;;;;;;;6.65;2.33;;;;;;;24.01;32.66;100963.94;5073106;28;20028;-71
2021/06/17 01:35:10;;;;;;;4.88;1.40;;;;;;;23.58;33.93;100969.50;5072983;28;20024;-71
2021/06/17 01:37:37;;;;;;;3.38;1.50;;;;;;;23.65;33.54;100969.50;5073006;28;20078;-72
2021/06/17 01:40:04;;;;;;;7.57;1.98;;;;;;;23.62;33.50;100970.31;5073055;28;20024;-72
2021/06/17 01:42:31;;;;;;;9.70;2.30;;;;;;;23.78;33.15;100969.91;5072932;28;20028;-72
2021/06/17 01:44:58;;;;;;;6.28;1.70;;;;;;;23.72;33.37;100958.34;5072923;28;20024;-71
2021/06/17 01:47:26;;;;;;;6.82;1.85;;;;;;;23.66;33.61;100964.75;5072904;28;20029;-71
2021/06/17 01:49:53;;;;;;;8.68;2.47;;;;;;;23.71;33.28;100965.13;5072917;28;20110;-71
2021/06/17 01:52:22;;;;;;;4.40;1.63;;;;;;;23.67;33.37;100961.56;5072636;28;20024;-71
2021/06/17 01:54:49;;;;;;;7.17;1.87;;;;;;;23.72;33.46;100963.94;5072669;28;20044;-71
2021/06/17 01:57:17;;;;;;;11.23;3.08;;;;;;;23.71;33.37;100965.13;5072684;28;20078;-73
2021/06/17 01:59:45;;;;;;;5.50;2.40;;;;;;;23.71;33.19;100970.72;5072734;28;20395;-71
2021/06/17 02:02:12;;;;;;;6.78;2.13;;;;;;;23.66;33.24;100964.75;5054680;28;20052;-71
2021/06/17 02:04:39;;;;;;;6.75;2.25;;;;;;;23.57;33.73;100967.88;5072718;28;20020;-71
2021/06/17 02:07:05;;;;;;;10.32;2.90;;;;;;;23.64;33.38;100967.91;5072648;28;20391;-71
2021/06/17 02:09:31;;;;;;;6.90;2.00;;;;;;;23.57;33.36;100967.88;5054639;28;20020;-71
2021/06/17 02:11:58;;;;;;;5.15;1.98;;;;;;;23.50;33.74;100954.72;5072571;28;20518;-71
2021/06/17 02:14:25;;;;;;;10.13;2.33;;;;;;;23.45;33.53;100957.91;5072466;28;20099;-72
2021/06/17 02:16:52;;;;;;;10.93;2.42;;;;;;;23.47;33.61;100960.28;5072351;28;20070;-71
2021/06/17 02:19:20;;;;;;;8.20;2.13;;;;;;;23.46;33.50;100967.06;5072284;28;20592;-71
2021/06/17 02:21:50;;;;;;;9.57;2.20;;;;;;;23.39;33.44;100964.25;5072388;28;20024;-71
2021/06/17 02:24:16;;;;;;;;;;;;;;;23.30;33.86;100966.63;5072951;28;20052;-71
2021/06/17 02:26:44;;;;;;;7.35;2.00;;;;;;;23.34;33.71;100967.41;5072417;28;19954;-71
2021/06/17 02:29:13;;;;;;;8.60;2.35;;;;;;;23.34;33.50;100976.59;5072437;28;20426;-71
2021/06/17 02:31:44;;;;;;;11.27;3.08;;;;;;;23.29;33.73;100970.63;5072261;28;20112;-71
2021/06/17 02:34:11;;;;;;;5.97;2.30;;;;;;;23.32;33.71;100969.81;5072260;28;20036;-71
2021/06/17 02:36:41;;;;;;;8.32;1.75;;;;;;;23.26;33.78;100967.41;5072593;28;20086;-71
2021/06/17 02:39:08;;;;;;;4.95;2.20;;;;;;;23.25;33.67;100959.44;5072310;28;20021;-73
2021/06/17 02:41:37;;;;;;;9.57;2.65;;;;;;;23.21;33.88;100962.22;5072243;28;20055;-71
2021/06/17 02:44:04;;;;;;;7.78;2.10;;;;;;;23.27;33.59;100959.84;5072340;28;20471;-71
2021/06/17 02:46:30;;;;;;;6.13;1.90;;;;;;;23.29;33.36;100965.84;5072211;28;20037;-71
2021/06/17 02:48:56;;;;;;;7.53;2.22;;;;;;;23.29;33.57;100968.63;5072192;28;20048;-71
2021/06/17 02:51:23;;;;;;;9.52;1.90;;;;;;;23.29;33.47;100971.41;5072450;28;20063;-71
2021/06/17 02:53:49;;;;;;;10.25;3.10;;;;;;;23.27;33.67;100982.13;5071911;28;20045;-71
2021/06/17 02:56:46;;;;;;;9.15;2.45;;;;;;;23.18;33.70;100971.38;5072182;28;20383;-72
2021/06/17 02:59:35;;;;;;;8.15;2.88;;;;;;;23.19;33.82;100972.16;5028301;28;20044;-71
2021/06/17 03:02:26;;;;;;;5.78;2.30;;;;;;;23.15;33.76;100980.53;5054137;28;20111;-71
2021/06/17 03:05:11;;;;;;;8.00;2.15;;;;;;;23.09;33.43;100984.09;5072163;28;20111;-71
2021/06/17 03:07:46;;;;;;;6.82;2.03;;;;;;;23.03;33.51;100982.84;5069249;28;20490;-71
2021/06/17 03:10:13;;;;;;;7.45;1.92;;;;;;;22.98;33.65;100978.47;5051445;28;20055;-71
2021/06/17 03:12:44;;;;;;;6.82;2.65;;;;;;;22.87;33.76;100975.63;5051885;28;20033;-71
2021/06/17 03:15:12;;;;;;;3.90;2.15;;;;;;;22.88;33.76;100982.00;5051984;28;20052;-71
2021/06/17 03:17:48;;;;;;;5.82;1.80;;;;;;;22.85;33.69;100989.16;5051894;28;20029;-71
2021/06/17 03:20:16;;;;;;;4.70;2.10;;;;;;;22.83;33.38;100983.16;5051789;28;20025;-71
2021/06/17 03:22:49;;;;;;;8.90;2.45;;;;;;;22.79;33.45;100981.53;5034053;28;20057;-71
2021/06/17 03:25:18;;;;;;;11.38;3.35;;;;;;;22.79;33.73;100989.88;5051817;28;20067;-71
2021/06/17 03:27:49;;;;;;;7.55;2.63;;;;;;;22.74;33.80;100988.25;5051768;28;20029;-71
2021/06/17 03:30:20;;;;;;;9.13;2.63;;;;;;;22.75;33.90;100986.28;5053259;28;20039;-71
2021/06/17 03:32:48;;;;;;;5.10;1.95;;;;;;;22.74;33.77;101004.19;5055267;28;20025;-71
2021/06/17 03:35:17;;;;;;;6.32;2.08;;;;;;;22.71;33.82;101000.19;5055457;28;20029;-71
2021/06/17 03:37:44;;;;;;;7.78;2.40;;;;;;;22.74;33.87;101002.19;5055357;28;20471;-71
2021/06/17 03:40:11;;;;;;;10.32;2.30;;;;;;;22.73;33.87;100999.78;5055322;28;20468;-71
2021/06/17 03:42:38;;;;;;;9.50;2.38;;;;;;;22.63;33.92;100999.34;5055225;28;20028;-71
2021/06/17 03:45:04;;;;;;;6.88;1.80;;;;;;;22.57;33.76;101009.25;5037346;28;20068;-71
2021/06/17 03:47:30;;;;;;;5.53;1.98;;;;;;;22.53;33.96;101000.09;5055465;28;20033;-71
2021/06/17 03:49:57;;;;;;;9.00;2.72;;;;;;;22.50;34.06;101000.84;5055131;28;20059;-71
2021/06/17 03:52:23;;;;;;;5.50;2.30;;;;;;;22.45;34.16;100998.44;5055047;28;20053;-73
2021/06/17 03:54:49;;;;;;;7.80;2.67;;;;;;;22.43;34.15;101004.38;5054926;28;20495;-71
2021/06/17 03:57:21;;;;;;;6.55;1.92;;;;;;;22.43;34.05;101006.38;5055039;28;20037;-71
2021/06/17 03:59:47;;;;;;;4.00;1.83;;;;;;;22.37;34.04;101013.50;5054920;28;20029;-71
2021/06/17 04:02:13;;;;;;;7.05;2.35;;;;;;;22.32;34.12;101008.28;5053599;28;20029;-71
2021/06/17 04:04:40;;;;;;;10.38;2.63;;;;;;;22.36;34.07;101011.88;5054880;28;20541;-71
2021/06/17 04:07:10;;;;;;;10.00;2.55;;;;;;;22.36;34.02;101009.91;5054863;28;20040;-71
2021/06/17 04:09:39;;;;;;;5.57;1.75;;;;;;;22.40;33.94;101019.09;5054835;28;20029;-71
2021/06/17 04:12:11;;;;;;;8.48;3.10;;;;;;;22.35;34.28;101022.22;5054720;28;20503;-72
2021/06/17 04:14:40;;;;;;;8.50;2.40;;;;;;;22.29;34.13;101025.75;5054958;28;20095;-71
2021/06/17 04:17:07;;;;;;;11.60;2.67;;;;;;;22.20;34.30;101037.22;5054841;28;20025;-71
2021/06/17 04:19:37;;;;;;;8.00;1.88;;;;;;;22.25;34.42;101038.84;5054682;28;20033;-71
2021/06/17 04:22:04;;;;;;;9.98;2.25;;;;;;;22.25;34.21;101030.50;5054589;28;20112;-71
2021/06/17 04:24:35;;;;;;;12.57;3.13;;;;;;;22.17;34.66;101040.78;5036632;28;20037;-71
2021/06/17 04:27:02;;;;;;;7.22;2.40;;;;;;;22.18;34.74;101038.78;5054593;28;20029;-71
2021/06/17 04:29:29;;;;;;;7.38;2.88;;;;;;;22.24;34.57;101042.81;5054328;28;20471;-71
2021/06/17 04:31:56;;;;;;;5.95;2.47;;;;;;;22.23;34.53;101050.38;5054551;28;20057;-71
2021/06/17 04:34:22;;;;;;;11.63;2.30;;;;;;;22.14;34.52;101052.66;5054264;28;20029;-71
2021/06/17 04:36:49;;;;;;;11.02;2.53;;;;;;;22.15;34.46;101062.63;5054312;28;20087;-73
2021/06/17 04:39:15;;;;;;;14.40;3.65;;;;;;;22.13;34.84;101064.97;5054327;28;20067;-71
2021/06/17 04:41:43;;;;;;;6.55;2.45;;;;;;;22.15;34.52;101052.31;5053804;28;20029;-71
2021/06/17 04:44:10;;;;;;;9.55;2.35;;;;;;;22.07;34.52;101056.19;5054105;28;20029;-71
2021/06/17 04:46:36;;;;;;;16.48;4.53;;;;;;;22.13;34.70;101062.19;5054065;28;20025;-71
2021/06/17 04:49:03;;;;;;;12.27;3.10;;;;;;;21.93;35.21;101060.81;5053995;28;20116;-70
2021/06/17 04:51:32;;;;;;;8.88;2.53;;;;;;;21.87;35.38;101058.38;5054255;28;20029;-71
2021/06/17 04:53:59;;;;;;;8.77;3.55;;;;;;;21.94;35.58;101070.75;5053728;28;20471;-71
2021/06/17 04:56:25;;;;;;;8.00;2.58;;;;;;;22.06;35.23;101071.25;5054156;28;20029;-71
2021/06/17 04:58:51;;;;;;;6.32;2.88;;;;;;;22.14;35.38;101069.34;5035799;28;21000;-71
2021/06/17 05:01:18;;;;;;;10.80;2.85;;;;;;;22.08;35.38;101068.94;5053861;28;20020;-71
2021/06/17 05:03:47;;;;;;;8.25;2.33;;;;;;;22.07;35.51;101072.88;5053796;28;20481;-71
2021/06/17 05:06:15;;;;;;;14.45;4.00;;;;;;;21.94;35.83;101079.09;5053774;28;20400;-71
2021/06/17 05:11:25;;;;;;;6.10;2.58;;;;;;;22.07;35.68;101088.78;5053711;28;20116;-71
2021/06/17 05:13:51;;;;;;;10.23;2.97;;;;;;;22.06;35.92;101089.94;5053520;28;20048;-71
2021/06/17 05:16:17;;;;;;;8.30;2.67;;;;;;;22.08;36.02;101091.19;5035646;28;20522;-71
2021/06/17 05:18:43;;;;;;;11.57;3.40;;;;;;;22.18;35.75;101098.03;5053388;28;20024;-71
2021/06/17 05:21:09;;;;;;;7.28;3.20;;;;;;;22.17;36.07;101106.78;5053721;28;20104;-70
2021/06/17 05:23:38;;;;;;;10.82;3.25;;;;;;;22.10;36.24;101105.53;5053333;28;20024;-71
2021/06/17 05:26:05;;;;;;;7.95;2.90;;;;;;;22.26;35.93;101105.28;5053329;28;20096;-71
2021/06/17 05:28:30;;;;;;;13.65;3.33;;;;;;;22.27;36.13;101117.19;5053327;28;20104;-71
2021/06/17 05:31:01;;;;;;;16.58;3.85;;;;;;;22.33;35.89;101122.03;5053456;28;20104;-71
2021/06/17 05:33:32;;;;;;;14.23;2.97;;;;;;;22.31;36.08;101120.84;5053170;28;20033;-71
2021/06/17 05:35:59;;;;;;;7.35;2.45;;;;;;;22.38;36.08;101127.25;5053177;28;20032;-71
2021/06/17 05:38:25;;;;;;;11.50;3.00;;;;;;;22.44;36.08;101127.69;5053372;28;20067;-71
2021/06/17 05:40:52;;;;;;;10.77;3.22;;;;;;;22.35;36.31;101132.78;5053076;28;20029;-71
2021/06/17 05:43:19;;;;;;;6.90;2.67;;;;;;;22.36;36.41;101145.50;5053028;28;20029;-72
2021/06/17 05:45:45;;;;;;;10.27;3.15;;;;;;;22.64;36.00;101148.56;5052959;28;20036;-71
2021/06/17 05:48:11;;;;;;;13.10;3.55;;;;;;;22.65;36.28;101154.91;5052830;28;20029;-71
2021/06/17 05:50:38;;;;;;;11.63;2.92;;;;;;;22.73;36.28;101158.56;5052896;28;20108;-70
2021/06/17 05:53:04;;;;;;;13.07;2.90;;;;;;;22.86;36.31;101140.41;5051852;28;20068;-70
2021/06/17 05:55:29;;;;;;;14.45;3.72;;;;;;;23.01;35.94;101152.44;5052864;28;20032;-69
2021/06/17 05:57:55;;;;;;;12.60;3.78;;;;;;;23.12;35.95;101153.28;5052789;28;20384;-69
2021/06/17 06:00:21;;;;;;;8.40;2.83;;;;;;;23.45;35.66;101155.09;5052765;28;20021;-69
2021/06/17 06:02:47;;;;;;;9.00;3.42;;;;;;;23.64;35.59;101157.59;5052709;28;20454;-70
2021/06/17 06:05:13;;;;;;;8.98;2.53;;;;;;;23.86;35.48;101152.88;5052690;28;20068;-69
2021/06/17 06:07:39;;;;;;;7.60;2.50;;;;;;;23.95;35.54;101152.50;5052705;28;20052;-69
2021/06/17 06:10:10;;;;;;;6.90;3.60;;;;;;;23.88;35.86;101146.91;5052678;28;20024;-70
2021/06/17 06:12:36;;;;;;;9.77;4.13;;;;;;;23.45;36.45;101149.53;5051489;28;20021;-71
2021/06/17 06:15:03;;;;;;;11.30;3.63;;;;;;;23.55;36.06;101154.34;5051848;28;20025;-70
2021/06/17 06:17:28;;;;;;;10.85;4.82;;;;;;;23.23;36.45;101148.59;5052613;28;20112;-70
2021/06/17 06:19:54;;;;;;;12.77;3.03;;;;;;;23.56;36.25;101138.41;5063814;28;20575;-70
2021/06/17 06:22:20;;;;;;;9.23;3.08;;;;;;;23.54;36.00;101133.22;5070821;28;20028;-70
2021/06/17 06:24:45;;;;;;;6.38;2.53;;;;;;;23.75;35.85;101129.75;5071146;28;20027;-70
2021/06/17 06:27:13;;;;;;;8.85;2.97;;;;;;;23.88;35.82;101130.16;5071142;28;20047;-70
2021/06/17 06:29:38;;;;;;;13.07;3.38;;;;;;;23.60;35.88;101130.84;5071217;28;20386;-70
2021/06/17 06:32:05;;;;;;;6.90;2.75;;;;;;;23.44;36.55;101137.56;5071020;28;20032;-70
2021/06/17 06:34:30;;;;;;;8.93;3.83;;;;;;;23.68;35.61;101133.31;5071216;28;20739;-71
2021/06/17 06:36:56;;;;;;;12.15;3.17;;;;;;;23.90;35.65;101134.19;5053002;28;20119;-70
2021/06/17 06:39:22;;;;;;;9.90;3.75;;;;;;;24.13;35.08;101131.03;5071637;28;20025;-69
2021/06/17 06:41:48;;;;;;;9.77;3.13;;;;;;;23.89;35.65;101132.59;5072318;28;20387;-70
2021/06/17 06:44:14;;;;;;;8.95;2.47;;;;;;;24.07;35.56;101129.81;5072266;28;20029;-71
2021/06/17 06:46:42;;;;;;;10.70;2.35;;;;;;;24.21;35.20;101140.22;5053454;28;20032;-71
2021/06/17 06:49:08;;;;;;;7.63;2.80;;;;;;;24.35;35.15;101138.28;5072203;28;20525;-73
2021/06/17 06:51:41;;;;;;;14.38;3.72;;;;;;;24.40;35.03;101141.84;5072288;28;20025;-71
2021/06/17 06:54:10;;;;;;;8.73;2.63;;;;;;;24.46;35.16;101129.91;5063436;28;20089;-71
2021/06/17 06:56:37;;;;;;;10.85;2.92;;;;;;;24.53;34.87;101134.69;5072231;28;20054;-71
2021/06/17 06:59:04;;;;;;;7.38;2.17;;;;;;;24.81;34.37;101131.88;5072090;28;20025;-71
2021/06/17 07:01:30;;;;;;;13.25;2.53;;;;;;;24.58;34.76;101131.50;5072147;28;20031;-72
2021/06/17 07:03:56;;;;;;;9.32;2.35;;;;;;;24.92;34.46;101132.66;5073223;28;20024;-72
2021/06/17 07:06:22;;;;;;;8.38;2.45;;;;;;;25.03;34.15;101126.28;5074708;28;20032;-71
2021/06/17 07:08:47;;;;;;;8.43;2.40;;;;;;;25.23;34.09;101127.44;5074652;28;20028;-73
2021/06/17 07:11:13;;;;;;;7.53;2.10;;;;;;;25.22;33.95;101125.03;5074590;28;20085;-72
2021/06/17 07:13:38;;;;;;;9.90;2.55;;;;;;;25.22;33.70;101139.03;5075845;28;20025;-74
2021/06/17 07:16:05;;;;;;;9.82;2.53;;;;;;;25.39;33.28;101139.00;5075659;28;20028;-70
2021/06/17 07:18:31;;;;;;;15.15;3.38;;;;;;;25.44;33.77;101134.97;5071520;28;20544;-76
2021/06/17 07:20:57;;;;;;;11.30;2.95;;;;;;;25.57;33.68;101147.31;5075421;28;20048;-73
2021/06/17 07:23:26;;;;;;;15.90;2.58;;;;;;;25.68;33.42;101153.63;5074063;28;20097;-71
2021/06/17 07:25:52;;;;;;;11.40;3.22;;;;;;;25.49;33.63;101150.53;5055727;28;20032;-71
2021/06/17 07:28:18;;;;;;;13.27;2.78;;;;;;;25.77;33.25;101153.25;5055617;28;20029;-71
2021/06/17 07:30:43;;;;;;;8.52;2.42;;;;;;;25.83;32.73;101151.59;5054144;28;20442;-71
2021/06/17 07:33:09;;;;;;;9.38;1.92;;;;;;;25.95;32.61;101144.75;5055321;28;20018;-71
2021/06/17 07:35:35;;;;;;;9.02;2.20;;;;;;;25.67;32.96;101162.44;5055492;28;20095;-71
2021/06/17 07:38:01;;;;;;;11.40;2.50;;;;;;;25.56;32.90;101165.28;5055519;28;20390;-71
2021/06/17 07:40:26;;;;;;;8.55;2.50;;;;;;;25.75;32.59;101164.03;5061261;28;20107;-71
2021/06/17 07:42:52;;;;;;;7.40;2.45;;;;;;;25.75;32.02;101169.63;5074138;28;20172;-71
2021/06/17 07:45:18;;;;;;;5.00;1.50;;;;;;;25.85;32.24;101168.81;5075564;28;20025;-70
2021/06/17 07:47:43;;;;;;;9.20;2.50;;;;;;;25.86;32.19;101162.00;5075202;28;20051;-70
2021/06/17 07:50:10;;;;;;;9.77;2.53;;;;;;;25.84;32.01;101169.19;5070536;28;20028;-71
2021/06/17 07:52:37;;;;;;;11.23;2.78;;;;;;;26.27;31.38;101164.16;5058029;28;20029;-70
2021/06/17 07:55:04;;;;;;;9.15;2.15;;;;;;;26.03;31.45;101159.50;5077010;28;20048;-70
2021/06/17 07:57:31;;;;;;;8.32;2.40;;;;;;;26.06;31.03;101169.88;5077936;28;20051;-70
2021/06/17 07:59:57;;;;;;;10.07;2.92;;;;;;;26.18;31.08;101167.41;5077923;28;20020;-71
2021/06/17 08:02:22;;;;;;;7.25;2.47;;;;;;;26.51;30.20;101177.22;5078105;28;20113;-71
2021/06/17 08:04:48;;;;;;;11.52;5.63;;;;;;;26.45;30.07;101178.88;5077967;28;20599;-69
2021/06/17 08:07:13;;;;;;;9.88;2.88;;;;;;;26.73;29.90;101182.66;5077725;28;20024;-70
2021/06/17 08:09:39;;;;;;;11.13;2.10;;;;;;;26.78;29.80;101187.81;5077687;28;20038;-73
2021/06/17 08:12:05;;;;;;;18.10;2.55;;;;;;;26.94;29.50;101202.09;5059383;28;20028;-72
2021/06/17 08:14:31;;;;;;;9.65;2.33;;;;;;;27.07;28.94;101205.22;5077921;28;20032;-71
2021/06/17 08:16:58;;;;;;;7.15;1.80;;;;;;;27.25;28.61;101205.84;5073108;28;20081;-71
2021/06/17 08:19:31;;;;;;;3.92;1.83;;;;;;;27.31;28.06;101201.38;5056645;28;20028;-71
2021/06/17 08:22:05;;;;;;;7.15;2.30;;;;;;;27.38;27.80;101203.31;5074652;28;20055;-71
2021/06/17 08:24:36;;;;;;;8.18;2.50;;;;;;;27.48;28.07;101212.81;5074547;28;20052;-71
2021/06/17 08:27:03;;;;;;;9.90;2.30;;;;;;;27.83;27.56;101217.25;5074581;28;20423;-71
2021/06/17 08:29:29;;;;;;;11.23;2.70;;;;;;;27.80;27.69;101209.66;5074186;28;20437;-71
2021/06/17 08:31:55;;;;;;;7.13;2.50;;;;;;;27.87;27.55;101218.78;5054869;28;20036;-71
2021/06/17 08:34:24;;;;;;;11.93;2.40;;;;;;;27.99;27.29;101211.03;5072667;28;20033;-72
2021/06/17 08:36:51;;;;;;;13.30;3.40;;;;;;;28.14;27.48;101212.44;5072765;28;20028;-71
2021/06/17 08:39:17;;;;;;;10.73;2.67;;;;;;;28.29;27.06;101213.81;5072866;28;20024;-70
2021/06/17 08:41:43;;;;;;;9.77;2.45;;;;;;;28.19;26.74;101206.34;5073057;28;20501;-72
2021/06/17 08:44:08;;;;;;;14.35;2.60;;;;;;;28.36;26.71;101207.34;5072632;28;20039;-71
2021/06/17 08:46:34;;;;;;;9.52;2.33;;;;;;;28.22;26.53;101213.91;5071979;28;20024;-71
2021/06/17 08:49:01;;;;;;;7.25;2.42;;;;;;;28.25;26.23;101224.28;5074165;28;20029;-71
2021/06/17 08:51:30;;;;;;;7.65;2.45;;;;;;;28.11;26.37;101218.88;5056092;28;20485;-71
2021/06/17 08:53:56;;;;;;;8.25;1.85;;;;;;;28.20;26.43;101214.34;5073825;28;20084;-71
2021/06/17 08:56:22;;;;;;;20.20;4.20;;;;;;;28.11;26.52;101216.06;5073500;28;20438;-71
2021/06/17 08:58:49;;;;;;;11.85;2.42;;;;;;;28.42;26.27;101220.47;5073924;28;20021;-71
2021/06/17 09:01:15;;;;;;;9.80;2.92;;;;;;;28.68;25.82;101223.69;5073778;28;20024;-71
2021/06/17 09:03:44;;;;;;;5.03;1.63;;;;;;;28.43;25.69;101227.69;5073782;28;20025;-71
2021/06/17 09:06:10;;;;;;;9.07;2.92;;;;;;;28.59;25.28;101232.66;5073824;28;20487;-71
2021/06/17 09:08:37;;;;;;;8.98;2.30;;;;;;;28.56;24.57;101229.91;5073693;28;20081;-71
2021/06/17 09:11:18;;;;;;;8.20;2.22;;;;;;;28.70;23.72;101238.91;5073664;28;20048;-74
2021/06/17 09:13:44;;;;;;;6.68;2.03;;;;;;;29.16;23.59;101228.13;5073523;28;20094;-71
2021/06/17 09:16:23;;;;;;;9.95;2.40;;;;;;;29.08;23.61;101232.28;5055221;28;20024;-71
2021/06/17 09:18:48;;;;;;;7.93;2.45;;;;;;;29.24;23.92;101226.78;5072554;28;20025;-71
2021/06/17 09:21:14;;;;;;;7.78;3.17;;;;;;;29.00;23.36;101231.63;5073418;28;20174;-71
2021/06/17 09:23:42;;;;;;;6.45;2.35;;;;;;;29.24;23.00;101221.16;5073649;28;20017;-72
2021/06/17 09:26:20;;;;;;;4.55;1.48;;;;;;;28.97;23.00;101224.06;5055407;28;20089;-71
2021/06/17 09:29:07;;;;;;;7.00;2.78;;;;;;;29.09;22.97;101220.59;5073278;28;20467;-71
2021/06/17 09:31:36;;;;;;;12.18;2.28;;;;;;;29.63;22.88;101225.28;5073326;28;20031;-72
2021/06/17 09:34:06;;;;;;;5.28;1.90;;;;;;;29.62;23.09;101226.50;5073185;28;20047;-71
2021/06/17 09:36:34;;;;;;;4.18;1.83;;;;;;;29.54;23.00;101232.25;5073198;28;20399;-71
2021/06/17 09:39:08;;;;;;;4.47;1.92;;;;;;;29.68;23.10;101231.19;5073049;28;20475;-72
2021/06/17 09:41:43;;;;;;;5.38;1.60;;;;;;;29.79;23.05;101226.16;5073123;28;20115;-71
2021/06/17 09:44:38;;;;;;;5.05;1.75;;;;;;;29.89;22.32;101224.31;5073070;28;20040;-71
2021/06/17 09:47:04;;;;;;;7.93;2.15;;;;;;;30.15;22.34;101216.16;5062458;28;20486;-72
2021/06/17 09:49:29;;;;;;;7.38;2.20;;;;;;;30.19;22.48;101228.16;5072926;28;20109;-71
2021/06/17 09:51:55;;;;;;;4.50;2.05;;;;;;;30.35;22.28;101217.69;5072948;28;20172;-71
2021/06/17 09:54:25;;;;;;;6.25;1.95;;;;;;;30.35;21.82;101220.50;5072242;28;20063;-71
2021/06/17 09:56:55;;;;;;;17.67;2.63;;;;;;;30.34;21.35;101213.28;5054887;28;20551;-70
2021/06/17 09:59:35;;;;;;;;;;;;;;;30.02;21.62;101230.09;5055333;28;20033;-70
2021/06/17 10:02:01;;;;;;;7.07;2.05;;;;;;;30.33;21.33;101233.47;5072755;28;19920;-71
2021/06/17 10:04:27;;;;;;;4.50;1.65;;;;;;;30.42;21.12;101225.19;5072773;28;20041;-71
2021/06/17 10:06:53;;;;;;;6.72;2.00;;;;;;;30.55;21.08;101233.75;5054729;28;20415;-70
2021/06/17 10:09:19;;;;;;;4.53;2.08;;;;;;;30.45;20.61;101223.50;5072729;28;20056;-71
2021/06/17 10:11:46;;;;;;;9.15;2.20;;;;;;;30.70;20.77;101235.03;5072567;28;20461;-70
2021/06/17 10:14:13;;;;;;;7.43;1.83;;;;;;;30.76;20.92;101226.81;5072516;28;20425;-72
2021/06/17 10:16:43;;;;;;;9.98;2.45;;;;;;;30.92;20.56;101227.63;5070921;28;20059;-71
2021/06/17 10:19:10;;;;;;;5.57;1.92;;;;;;;31.11;20.07;101233.59;5054594;28;20104;-74
2021/06/17 10:21:36;;;;;;;7.18;1.98;;;;;;;31.32;19.90;101232.28;5054434;28;20104;-72
2021/06/17 10:24:11;;;;;;;5.45;1.88;;;;;;;31.37;19.92;101232.53;5072001;28;20547;-72
2021/06/17 10:26:44;;;;;;;6.75;2.25;;;;;;;31.11;20.01;101231.56;5072491;28;20025;-71
2021/06/17 10:29:21;;;;;;;15.05;1.85;;;;;;;30.93;19.31;101236.88;5072773;28;20028;-70
2021/06/17 10:31:51;;;;;;;4.00;1.38;;;;;;;31.19;19.25;101232.97;5072437;28;20134;-71
2021/06/17 10:34:23;;;;;;;5.28;1.70;;;;;;;31.36;19.08;101225.31;5072365;28;20025;-70
2021/06/17 10:37:29;;;;;;;3.13;1.33;;;;;;;31.37;19.33;101249.47;5072311;28;20024;-71
2021/06/17 10:40:04;;;;;;;9.57;2.08;;;;;;;31.53;19.57;101251.47;5015372;28;20051;-73
2021/06/17 10:42:32;;;;;;;5.88;2.08;;;;;;;31.27;20.03;101247.72;5060963;28;20043;-71
2021/06/17 10:44:59;;;;;;;11.52;2.80;;;;;;;31.31;20.54;101251.25;5079008;28;20421;-71
2021/06/17 10:47:52;;;;;;;5.47;2.20;;;;;;;31.03;19.91;101252.75;5077341;28;20056;-72
2021/06/17 10:50:32;;;;;;;10.60;2.08;;;;;;;31.05;19.81;101261.56;5060845;28;20382;-72
2021/06/17 10:53:15;;;;;;;6.30;1.70;;;;;;;31.03;17.75;101271.72;5078625;28;20028;-71
2021/06/17 10:55:53;;;;;;;3.85;1.33;;;;;;;31.13;18.58;101262.94;5060769;28;20430;-72
2021/06/17 10:58:41;;;;;;;4.55;1.30;;;;;;;31.42;18.31;101246.09;5078800;28;20487;-72
2021/06/17 11:01:26;;;;;;;11.82;2.30;;;;;;;31.61;18.27;101240.75;5077653;28;20029;-74
2021/06/17 11:04:11;;;;;;;9.70;2.00;;;;;;;31.56;18.12;101253.38;5058254;28;20048;-72
2021/06/17 11:06:52;;;;;;;11.85;2.35;;;;;;;31.32;18.74;101264.13;5077036;28;20016;-72
2021/06/17 11:09:36;;;;;;;8.25;1.98;;;;;;;30.73;18.79;101272.84;5059066;28;20024;-71
2021/06/17 11:12:27;;;;;;;2.95;1.15;;;;;;;30.72;18.79;101277.69;5058749;28;20029;-71
2021/06/17 11:15:01;;;;;;;6.20;1.83;;;;;;;30.88;19.08;101269.22;5040606;28;20482;-71
2021/06/17 11:17:26;;;;;;;8.30;1.73;;;;;;;31.01;19.23;101272.16;5069247;28;20104;-71
2021/06/17 11:20:19;;;;;;;3.72;1.30;;;;;;;30.78;20.04;101272.34;5060655;28;20059;-73
2021/06/17 11:22:48;;;;;;;5.53;1.90;;;;;;;31.31;19.51;101256.09;5067880;28;20044;-72
2021/06/17 11:25:16;;;;;;;4.22;2.00;;;;;;;31.56;19.82;101263.88;5060236;28;20024;-72
2021/06/17 11:28:13;;;;;;;5.72;3.22;;;;;;;31.45;19.68;101259.34;5075607;28;20028;-72
2021/06/17 11:30:42;;;;;;;4.15;1.42;;;;;;;31.56;19.45;101261.06;5068991;28;20032;-74
2021/06/17 11:33:19;;;;;;;3.47;1.67;;;;;;;31.06;18.53;101266.00;5078073;28;20017;-75
2021/06/17 11:35:57;;;;;;;4.95;1.52;;;;;;;31.48;18.41;101266.13;5076097;28;20429;-74